createdAt,value
2019-05-23T00:01:12.010Z,37.20
2019-05-23T00:03:55.685Z,41.40
2019-05-23T00:06:27.193Z,36.03
2019-05-23T00:08:57.358Z,40.20
2019-05-23T00:11:46.855Z,38.27
2019-05-23T00:14:23.224Z,36.50
2019-05-23T00:16:54.687Z,34.83
2019-05-23T00:19:25.643Z,39.60
2019-05-23T00:21:56.124Z,39.87
2019-05-23T00:24:27.296Z,46.50
2019-05-23T00:26:59.799Z,41.20
2019-05-23T00:29:29.769Z,42.87
2019-05-23T00:32:15.747Z,41.93
2019-05-23T00:34:45.323Z,46.40
2019-05-23T00:37:16.723Z,43.53
2019-05-23T00:39:47.302Z,42.67
2019-05-23T00:42:16.960Z,36.90
2019-05-23T00:44:47.129Z,45.87
2019-05-23T00:47:16.999Z,50.00
2019-05-23T00:49:47.165Z,45.27
2019-05-23T00:52:17.114Z,46.10
2019-05-23T00:54:47.414Z,46.13
2019-05-23T00:57:17.481Z,40.07
2019-05-23T00:59:49.028Z,43.37
2019-05-23T01:02:19.620Z,47.37
2019-05-23T01:04:50.811Z,45.80
2019-05-23T01:07:20.765Z,45.53
2019-05-23T01:09:50.741Z,41.30
2019-05-23T01:12:21.098Z,48.47
2019-05-23T01:14:51.754Z,47.77
2019-05-23T01:17:22.035Z,40.43
2019-05-23T01:19:51.823Z,46.33
2019-05-23T01:22:21.388Z,40.00
2019-05-23T01:24:54.819Z,49.40
2019-05-23T01:27:24.576Z,49.70
2019-05-23T01:29:55.028Z,50.07
2019-05-23T01:32:28.210Z,55.27
2019-05-23T01:34:57.889Z,53.70
2019-05-23T01:37:27.467Z,49.40
2019-05-23T01:39:57.464Z,47.30
2019-05-23T01:42:29.288Z,52.23
2019-05-23T01:45:00.185Z,54.10
2019-05-23T01:47:32.477Z,53.57
2019-05-23T01:50:02.644Z,47.53
2019-05-23T01:52:32.892Z,57.00
2019-05-23T01:55:02.915Z,46.80
2019-05-23T01:57:33.096Z,47.30
2019-05-23T02:00:10.230Z,51.13
2019-05-23T02:02:35.197Z,53.83
2019-05-23T02:05:05.200Z,46.20
2019-05-23T02:07:35.303Z,52.43
2019-05-23T02:10:06.222Z,44.67
2019-05-23T02:12:37.564Z,52.77
2019-05-23T02:15:07.184Z,48.23
2019-05-23T02:17:37.723Z,46.30
2019-05-23T02:20:07.804Z,55.70
2019-05-23T02:22:37.330Z,45.63
2019-05-23T02:25:08.083Z,57.13
2019-05-23T02:27:37.654Z,52.87
2019-05-23T02:30:30.185Z,45.73
2019-05-23T02:32:41.212Z,50.43
2019-05-23T02:35:11.496Z,49.97
2019-05-23T02:38:06.746Z,52.43
2019-05-23T02:40:47.915Z,48.17
2019-05-23T02:43:19.305Z,52.60
2019-05-23T02:45:53.919Z,49.57
2019-05-23T02:48:25.928Z,50.20
2019-05-23T02:51:00.104Z,51.93
2019-05-23T02:53:33.582Z,53.33
2019-05-23T02:56:07.896Z,57.73
2019-05-23T02:58:52.105Z,51.87
2019-05-23T03:01:46.219Z,46.63
2019-05-23T03:04:18.038Z,52.83
2019-05-23T03:06:48.347Z,45.60
2019-05-23T03:09:19.676Z,52.70
2019-05-23T03:11:52.079Z,55.50
2019-05-23T03:14:22.705Z,53.93
2019-05-23T03:16:54.387Z,50.60
2019-05-23T03:19:34.271Z,49.17
2019-05-23T03:22:29.048Z,57.83
2019-05-23T03:25:01.473Z,47.83
2019-05-23T03:27:34.606Z,46.67
2019-05-23T03:30:06.128Z,51.33
2019-05-23T03:32:54.465Z,49.80
2019-05-23T03:35:28.406Z,44.73
2019-05-23T03:37:59.136Z,46.80
2019-05-23T03:40:29.896Z,50.03
2019-05-23T03:42:59.817Z,57.00
2019-05-23T03:45:33.507Z,54.07
2019-05-23T03:48:05.557Z,56.57
2019-05-23T03:50:35.640Z,48.70
2019-05-23T03:53:06.490Z,47.23
2019-05-23T03:55:38.548Z,52.30
2019-05-23T03:58:10.204Z,46.00
2019-05-23T04:00:44.706Z,48.30
2019-05-23T04:03:14.360Z,45.00
2019-05-23T04:05:45.699Z,42.00
2019-05-23T04:08:15.300Z,44.60
2019-05-23T04:10:45.044Z,48.37
2019-05-23T04:13:15.041Z,37.80
2019-05-23T04:15:44.695Z,42.90
2019-05-23T04:18:14.761Z,42.47
2019-05-23T04:20:44.528Z,42.63
2019-05-23T04:23:14.207Z,37.87
2019-05-23T04:25:43.659Z,54.53
2019-05-23T04:28:12.959Z,46.10
2019-05-23T04:30:42.435Z,54.50
2019-05-23T04:33:11.861Z,44.73
2019-05-23T04:35:41.126Z,45.30
2019-05-23T04:38:10.801Z,46.40
2019-05-23T04:40:40.360Z,39.83
2019-05-23T04:43:09.584Z,40.47
2019-05-23T04:45:40.115Z,37.47
2019-05-23T04:48:09.776Z,38.33
2019-05-23T04:50:39.697Z,37.27
2019-05-23T04:53:09.746Z,38.83
2019-05-23T04:55:39.481Z,34.67
2019-05-23T04:58:09.876Z,31.67
2019-05-23T05:00:39.566Z,33.60
2019-05-23T05:03:10.085Z,38.90
2019-05-23T05:05:40.075Z,32.07
2019-05-23T05:08:09.602Z,28.20
2019-05-23T05:10:39.644Z,32.67
2019-05-23T05:57:46.601Z,30.00
2019-05-23T06:18:05.523Z,28.50
2019-05-23T06:20:35.731Z,22.80
2019-05-23T06:55:18.757Z,20.77
2019-05-23T09:04:36.540Z,5.65
2019-05-23T09:07:07.252Z,5.58
2019-05-23T09:12:05.944Z,5.30
2019-05-23T09:14:35.447Z,4.90
2019-05-23T09:17:06.834Z,4.90
2019-05-23T09:24:33.292Z,5.47
2019-05-23T09:27:02.705Z,5.97
2019-05-23T09:51:55.929Z,11.40
2019-05-23T10:06:47.300Z,12.40
2019-05-23T10:09:17.112Z,14.10
2019-05-23T10:33:13.375Z,12.03
2019-05-23T10:35:58.853Z,10.87
2019-05-23T10:38:16.029Z,14.50
2019-05-23T10:40:46.362Z,9.80
2019-05-23T10:43:16.386Z,13.73
2019-05-23T10:45:46.564Z,14.47
2019-05-23T10:48:16.837Z,13.57
2019-05-23T10:50:46.838Z,14.00
2019-05-23T10:53:17.072Z,17.90
2019-05-23T10:55:47.395Z,16.13
2019-05-23T10:58:17.603Z,13.63
2019-05-23T11:00:48.005Z,14.93
2019-05-23T11:03:18.098Z,12.30
2019-05-23T11:05:48.059Z,12.90
2019-05-23T11:08:18.735Z,13.80
2019-05-23T11:10:49.235Z,17.93
2019-05-23T11:13:19.111Z,14.27
2019-05-23T11:15:49.850Z,12.20
2019-05-23T11:18:20.021Z,18.10
2019-05-23T11:20:49.916Z,13.27
2019-05-23T11:23:25.471Z,11.63
2019-05-23T11:25:55.171Z,11.30
2019-05-23T11:28:25.738Z,8.47
2019-05-23T11:30:57.849Z,8.63
2019-05-23T11:33:28.052Z,7.73
2019-05-23T11:35:58.330Z,6.20
2019-05-23T11:38:28.639Z,8.70
2019-05-23T11:40:58.625Z,8.73
2019-05-23T11:43:28.686Z,5.53
2019-05-23T11:46:02.167Z,8.23
2019-05-23T11:48:33.125Z,5.27
2019-05-23T11:51:03.324Z,4.90
2019-05-23T11:53:34.009Z,5.60
2019-05-23T11:56:03.993Z,5.67
2019-05-23T11:58:33.794Z,6.80
2019-05-23T12:01:20.911Z,4.10
2019-05-23T12:03:51.949Z,2.70
2019-05-23T12:06:25.771Z,5.00
2019-05-23T12:08:54.182Z,5.03
2019-05-23T12:11:29.429Z,4.33
2019-05-23T12:13:59.261Z,3.70
2019-05-23T12:16:29.283Z,6.07
2019-05-23T12:18:59.366Z,8.00
2019-05-23T12:21:30.341Z,4.93
2019-05-23T12:24:00.291Z,3.27
2019-05-23T12:26:30.896Z,6.50
2019-05-23T12:29:01.070Z,7.40
2019-05-23T12:31:31.441Z,4.70
2019-05-23T12:34:01.229Z,4.23
2019-05-23T12:36:31.672Z,4.40
2019-05-23T12:39:02.064Z,5.13
2019-05-23T12:41:31.948Z,8.83
2019-05-23T12:44:02.154Z,5.50
2019-05-23T12:46:31.794Z,3.20
2019-05-23T12:49:21.105Z,8.60
2019-05-23T12:51:51.684Z,10.93
2019-05-23T12:54:21.605Z,3.20
2019-05-23T12:56:51.943Z,4.30
2019-05-23T12:59:22.121Z,6.03
2019-05-23T13:01:53.621Z,6.77
2019-05-23T13:04:24.080Z,4.10
2019-05-23T13:06:54.756Z,6.00
2019-05-23T13:09:24.580Z,3.20
2019-05-23T13:11:54.650Z,6.10
2019-05-23T13:14:24.854Z,4.27
2019-05-23T13:16:59.783Z,5.40
2019-05-23T13:19:27.661Z,5.20
2019-05-23T16:37:32.028Z,3.00
2019-05-23T16:40:01.929Z,2.93
2019-05-23T16:42:32.269Z,5.77
2019-05-23T16:45:02.174Z,3.17
2019-05-23T16:47:32.325Z,5.47
2019-05-23T16:50:02.088Z,4.90
2019-05-23T16:52:32.301Z,3.10
2019-05-23T16:55:03.685Z,2.43
2019-05-23T16:57:50.742Z,3.30
2019-05-23T17:00:39.915Z,5.97
2019-05-23T17:03:41.078Z,4.40
2019-05-23T17:06:24.231Z,2.20
2019-05-23T17:09:11.644Z,2.30
2019-05-23T17:11:50.387Z,4.63
2019-05-23T17:14:30.432Z,3.10
2019-05-23T17:17:56.672Z,3.40
2019-05-23T17:20:20.742Z,5.70
2019-05-23T17:23:03.655Z,6.60
2019-05-23T17:25:56.550Z,4.23
2019-05-23T17:28:34.302Z,5.43
2019-05-23T17:31:09.422Z,7.33
2019-05-23T17:33:39.186Z,2.60
2019-05-23T17:36:08.949Z,2.40
2019-05-23T17:38:38.880Z,5.40
2019-05-23T17:41:09.347Z,4.90
2019-05-23T17:43:39.327Z,5.13
2019-05-23T17:46:09.195Z,4.27
2019-05-23T17:48:39.031Z,3.50
2019-05-23T17:51:08.844Z,5.47
2019-05-23T17:53:38.721Z,4.27
2019-05-23T17:56:09.173Z,3.60
2019-05-23T17:58:39.140Z,4.50
2019-05-23T18:01:09.443Z,5.33
2019-05-23T18:03:39.272Z,3.30
2019-05-23T18:06:09.895Z,4.90
2019-05-23T18:08:41.223Z,3.73
2019-05-23T18:11:11.411Z,2.60
2019-05-23T18:13:41.351Z,7.37
2019-05-23T18:16:12.162Z,6.23
2019-05-23T18:18:42.192Z,3.87
2019-05-23T18:21:12.400Z,7.70
2019-05-23T18:23:42.554Z,3.37
2019-05-23T18:26:12.841Z,3.70
2019-05-23T18:28:43.173Z,4.73
2019-05-23T18:31:17.356Z,4.30
2019-05-23T18:33:47.846Z,5.03
2019-05-23T18:36:17.629Z,4.97
2019-05-23T18:38:48.034Z,4.73
2019-05-23T18:41:17.768Z,5.40
2019-05-23T18:43:48.379Z,2.50
2019-05-23T18:46:40.423Z,4.53
2019-05-23T18:49:10.757Z,5.50
2019-05-23T18:51:41.134Z,3.20
2019-05-23T18:54:11.182Z,3.27
2019-05-23T18:56:41.444Z,8.00
2019-05-23T18:59:12.312Z,4.07
2019-05-23T19:01:42.544Z,3.83
2019-05-23T19:04:12.822Z,2.63
2019-05-23T19:06:43.291Z,3.93
2019-05-23T19:09:15.217Z,3.93
2019-05-23T19:11:45.640Z,3.50
2019-05-23T19:14:15.588Z,12.63
2019-05-23T19:16:47.702Z,6.40
2019-05-23T19:19:18.019Z,6.20
2019-05-23T19:21:48.502Z,3.50
2019-05-23T19:24:19.680Z,6.00
2019-05-23T19:34:59.561Z,4.17
2019-05-23T19:37:29.635Z,5.70
2019-05-23T19:39:59.737Z,5.67
2019-05-23T19:50:22.058Z,6.60
2019-05-23T19:52:52.879Z,4.70
2019-05-23T19:55:23.944Z,6.10
2019-05-23T19:57:55.869Z,5.90
2019-05-23T20:15:51.644Z,8.47
2019-05-23T20:18:21.722Z,7.50
2019-05-23T20:20:53.358Z,6.37
2019-05-23T20:23:23.508Z,5.97
2019-05-23T20:25:53.442Z,6.10
2019-05-23T20:28:23.629Z,8.60
2019-05-23T20:30:57.549Z,5.40
2019-05-23T20:33:27.751Z,4.87
2019-05-23T20:35:58.114Z,5.50
2019-05-23T20:38:28.608Z,3.60
2019-05-23T20:43:27.149Z,4.00
2019-05-23T20:45:57.830Z,5.43
2019-05-23T20:48:28.498Z,5.83
2019-05-23T20:50:58.399Z,11.93
2019-05-23T20:58:27.621Z,6.40
2019-05-23T21:03:41.586Z,6.60
2019-05-23T21:13:37.764Z,6.40
2019-05-23T21:18:36.935Z,5.70
2019-05-23T21:23:37.415Z,8.20
2019-05-23T21:26:07.995Z,6.90
2019-05-23T21:28:38.085Z,5.27
2019-05-23T21:31:22.124Z,4.80
2019-05-23T21:43:49.408Z,4.77
2019-05-23T21:46:19.274Z,9.10
